Time;durP1;ratioP1;P1;durP2;ratioP2;P2;SDS_P1;SDS_P2;PMS_P1;PMS_P2;Temp;Humidity;BMP_temperature;BMP_pressure;BME280_temperature;BME280_humidity;BME280_pressure;Samples;Min_cycle;Max_cycle;Signal;HPM_P1;HPM_P2
2022/03/22 00:02:04;;;;;;;0.60;0.60;;;7.60;84.30;;;;;;4952320;29;20545;-62
2022/03/22 00:04:30;;;;;;;0.22;0.22;;;7.60;85.50;;;;;;4951363;29;20028;-61
2022/03/22 00:06:56;;;;;;;0.63;0.63;;;7.60;84.50;;;;;;4952510;29;20031;-61
2022/03/22 00:09:22;;;;;;;1.52;1.42;;;7.60;84.10;;;;;;4935012;29;20027;-62
2022/03/22 00:11:50;;;;;;;0.10;0.10;;;7.60;82.00;;;;;;4935453;29;20368;-62
2022/03/22 00:14:17;;;;;;;0.40;0.40;;;7.60;82.30;;;;;;4951138;29;20035;-62
2022/03/22 00:16:43;;;;;;;0.10;0.10;;;7.50;84.30;;;;;;4953393;28;20042;-62
2022/03/22 00:19:09;;;;;;;1.35;1.08;;;7.50;84.30;;;;;;4954521;29;20027;-62
2022/03/22 00:21:35;;;;;;;0.30;0.30;;;7.50;82.10;;;;;;4956295;29;20039;-62
2022/03/22 00:24:02;;;;;;;2.40;2.20;;;7.40;81.60;;;;;;4954694;29;20115;-62
2022/03/22 00:26:28;;;;;;;0.30;0.30;;;7.50;79.10;;;;;;4955972;29;20403;-62
2022/03/22 00:28:53;;;;;;;0.20;0.20;;;7.50;82.00;;;;;;4954577;29;20046;-62
2022/03/22 00:31:20;;;;;;;6.53;1.33;;;7.00;88.30;;;;;;4956115;29;20027;-61
2022/03/22 00:33:45;;;;;;;1.38;1.27;;;6.20;90.80;;;;;;4955985;29;20490;-62
2022/03/22 00:36:13;;;;;;;1.42;1.33;;;6.50;89.30;;;;;;4955942;29;20031;-61
2022/03/22 00:38:39;;;;;;;1.23;0.90;;;6.60;85.90;;;;;;4955449;29;20042;-61
2022/03/22 00:41:04;;;;;;;0.20;0.20;;;6.60;84.50;;;;;;4955910;29;20031;-61
2022/03/22 00:43:30;;;;;;;0.52;0.52;;;6.70;86.00;;;;;;4954519;29;20043;-61
2022/03/22 00:45:56;;;;;;;0.65;0.50;;;6.60;85.40;;;;;;4955632;29;20103;-62
2022/03/22 00:48:22;;;;;;;0.85;0.85;;;6.60;87.50;;;;;;4955051;29;20455;-61
2022/03/22 00:50:48;;;;;;;1.13;1.08;;;6.60;88.70;;;;;;4955970;29;20114;-62
2022/03/22 00:53:15;;;;;;;0.22;0.22;;;6.60;89.70;;;;;;4955909;29;20035;-62
2022/03/22 00:55:41;;;;;;;0.10;0.10;;;6.50;90.20;;;;;;4955679;29;20027;-61
2022/03/22 00:58:08;;;;;;;0.13;0.13;;;6.50;90.20;;;;;;4954257;29;20127;-62
2022/03/22 01:00:34;;;;;;;2.25;1.40;;;6.50;89.00;;;;;;4954043;29;20198;-61
2022/03/22 01:03:02;;;;;;;0.70;0.70;;;6.50;87.70;;;;;;4954059;29;20078;-62
2022/03/22 01:05:30;;;;;;;1.27;1.17;;;6.50;88.60;;;;;;4955557;29;20030;-62
2022/03/22 01:08:03;;;;;;;0.98;0.90;;;6.50;86.50;;;;;;4955292;29;20023;-62
2022/03/22 01:10:31;;;;;;;0.00;0.00;;;6.60;84.10;;;;;;4955157;29;20163;-61
2022/03/22 01:12:57;;;;;;;0.98;0.98;;;6.70;84.30;;;;;;4955139;29;20058;-62
2022/03/22 01:15:28;;;;;;;0.10;0.10;;;6.60;85.10;;;;;;4955390;29;20031;-62
2022/03/22 01:17:55;;;;;;;;;;;6.20;88.80;;;;;;4955797;29;20031;-62
2022/03/22 01:20:25;;;;;;;0.10;0.10;;;6.00;90.00;;;;;;4955013;29;19910;-62
2022/03/22 01:22:52;;;;;;;0.43;0.43;;;6.00;88.40;;;;;;4955181;29;20031;-62
2022/03/22 01:25:25;;;;;;;1.15;1.05;;;6.10;86.70;;;;;;4953726;29;20434;-61
2022/03/22 01:27:52;;;;;;;1.35;1.30;;;6.00;89.40;;;;;;4954204;28;20027;-61
2022/03/22 01:30:20;;;;;;;0.03;0.03;;;6.00;89.60;;;;;;4954720;29;20027;-62
2022/03/22 01:32:51;;;;;;;2.10;0.82;;;5.90;89.90;;;;;;4955065;29;20023;-62
2022/03/22 01:35:18;;;;;;;0.17;0.17;;;5.90;90.40;;;;;;4953902;29;20067;-62
2022/03/22 01:37:49;;;;;;;2.42;1.25;;;5.80;91.10;;;;;;4937777;29;20233;-63
2022/03/22 01:40:17;;;;;;;0.17;0.17;;;5.70;92.00;;;;;;4953867;29;20031;-62
2022/03/22 01:42:44;;;;;;;0.40;0.40;;;5.60;92.20;;;;;;4955014;29;20027;-61
2022/03/22 01:45:11;;;;;;;1.85;1.75;;;5.50;91.30;;;;;;4954726;29;20041;-61
2022/03/22 01:47:43;;;;;;;0.20;0.20;;;5.50;92.10;;;;;;4953524;29;20122;-61
2022/03/22 01:50:12;;;;;;;1.08;1.00;;;5.50;91.90;;;;;;4997925;23;20453;-63
2022/03/22 01:52:40;;;;;;;0.43;0.43;;;5.50;92.20;;;;;;4975683;28;20035;-63
2022/03/22 01:55:14;;;;;;;2.00;1.70;;;5.50;92.00;;;;;;4992107;28;20045;-63
2022/03/22 01:57:40;;;;;;;0.28;0.28;;;5.40;91.60;;;;;;4960059;28;20116;-63
2022/03/22 02:00:13;;;;;;;1.88;1.10;;;5.50;92.50;;;;;;4992877;28;20026;-63
2022/03/22 02:08:12;;;;;;;1.55;1.27;;;5.00;94.30;;;;;;4974538;28;20026;-63
2022/03/22 02:10:38;;;;;;;0.75;0.75;;;4.80;94.80;;;;;;4975534;28;20034;-63
2022/03/22 02:13:05;;;;;;;0.40;0.40;;;4.80;94.70;;;;;;4992641;28;20054;-63
2022/03/22 02:15:31;;;;;;;0.22;0.22;;;4.80;93.00;;;;;;4972018;28;20420;-63
2022/03/22 02:17:59;;;;;;;1.17;1.17;;;4.80;91.90;;;;;;4973404;28;20023;-63
2022/03/22 02:20:26;;;;;;;0.45;0.45;;;4.90;91.70;;;;;;4972941;28;20650;-63
2022/03/22 02:23:03;;;;;;;0.63;0.63;;;4.90;91.50;;;;;;4988276;28;20473;-63
2022/03/22 02:25:29;;;;;;;0.40;0.40;;;4.90;91.60;;;;;;4973422;28;20035;-63
2022/03/22 02:27:55;;;;;;;0.77;0.77;;;4.90;91.70;;;;;;4972914;28;20041;-63
2022/03/22 02:30:22;;;;;;;1.45;1.35;;;4.90;91.50;;;;;;4972833;28;20102;-63
2022/03/22 02:33:01;;;;;;;0.63;0.63;;;4.90;92.00;;;;;;4972798;28;20035;-63
2022/03/22 02:35:29;;;;;;;0.45;0.43;;;5.00;92.20;;;;;;4973215;28;20121;-63
2022/03/22 02:37:55;;;;;;;0.20;0.20;;;4.90;92.60;;;;;;4955674;28;20030;-63
2022/03/22 02:40:21;;;;;;;0.20;0.20;;;4.90;92.60;;;;;;4956997;28;20038;-63
2022/03/22 02:42:50;;;;;;;0.28;0.28;;;4.90;92.60;;;;;;4958575;28;20465;-63
2022/03/22 02:45:18;;;;;;;0.45;0.30;;;4.90;92.70;;;;;;4975032;28;20490;-63
2022/03/22 02:47:44;;;;;;;0.68;0.68;;;4.90;92.80;;;;;;4992131;28;20609;-63
2022/03/22 02:50:11;;;;;;;1.75;1.52;;;4.80;93.00;;;;;;4974513;28;20401;-63
2022/03/22 02:52:39;;;;;;;0.45;0.45;;;4.80;92.80;;;;;;4974702;28;20489;-63
2022/03/22 02:55:07;;;;;;;0.77;0.75;;;4.80;92.60;;;;;;4974984;28;20034;-63
2022/03/22 02:57:35;;;;;;;0.10;0.10;;;4.80;92.70;;;;;;4991995;28;20383;-63
2022/03/22 03:00:03;;;;;;;0.30;0.30;;;4.80;93.10;;;;;;4974375;28;20069;-63
2022/03/22 03:02:29;;;;;;;4.10;1.33;;;4.80;93.30;;;;;;4974667;28;20061;-63
2022/03/22 03:04:55;;;;;;;1.48;1.00;;;4.70;93.50;;;;;;4991920;28;20490;-63
2022/03/22 03:07:21;;;;;;;1.58;1.48;;;4.70;93.50;;;;;;4991833;28;20068;-63
2022/03/22 03:09:47;;;;;;;1.95;1.85;;;4.60;93.70;;;;;;4974219;28;20034;-63
2022/03/22 03:12:13;;;;;;;0.55;0.55;;;4.60;93.80;;;;;;4991684;28;20027;-63
2022/03/22 03:14:39;;;;;;;0.10;0.10;;;4.50;94.00;;;;;;4974053;28;20157;-63
2022/03/22 03:17:10;;;;;;;1.23;1.13;;;4.50;94.20;;;;;;4991810;28;20042;-63
2022/03/22 03:19:36;;;;;;;7.00;1.58;;;4.50;94.20;;;;;;4974326;28;20031;-64
2022/03/22 03:22:03;;;;;;;2.13;1.25;;;4.40;94.10;;;;;;4991466;28;20122;-63
2022/03/22 03:24:30;;;;;;;0.63;0.63;;;4.40;94.40;;;;;;4974399;28;20042;-62
2022/03/22 03:26:57;;;;;;;0.30;0.30;;;4.30;94.80;;;;;;4958006;28;20145;-63
2022/03/22 03:29:23;;;;;;;0.13;0.13;;;4.30;94.80;;;;;;4991091;28;20030;-63
2022/03/22 03:31:48;;;;;;;0.45;0.45;;;4.20;94.80;;;;;;4991670;28;20435;-63
2022/03/22 03:34:18;;;;;;;0.30;0.30;;;4.00;95.60;;;;;;4974037;28;20412;-63
2022/03/22 03:36:44;;;;;;;1.65;1.10;;;4.00;95.70;;;;;;4974382;28;20414;-63
2022/03/22 03:39:11;;;;;;;1.15;1.10;;;4.10;95.40;;;;;;4991099;28;20034;-63
2022/03/22 03:41:56;;;;;;;0.30;0.30;;;4.00;95.30;;;;;;4991457;28;20045;-63
2022/03/22 03:47:22;;;;;;;0.10;0.10;;;4.00;95.30;;;;;;4991139;28;20425;-63
2022/03/22 03:50:00;;;;;;;3.70;2.35;;;3.90;95.60;;;;;;4990790;28;20066;-62
2022/03/22 03:52:32;;;;;;;0.80;0.80;;;3.90;95.80;;;;;;4973917;28;20034;-63
2022/03/22 03:54:58;;;;;;;0.75;0.75;;;3.90;95.80;;;;;;4991267;28;20651;-63
2022/03/22 03:57:25;;;;;;;0.25;0.25;;;3.80;96.00;;;;;;4973919;28;20061;-63
2022/03/22 03:59:52;;;;;;;0.17;0.17;;;3.80;95.90;;;;;;4990597;28;20494;-63
2022/03/22 04:02:19;;;;;;;0.50;0.50;;;3.70;95.90;;;;;;4972078;28;20034;-62
2022/03/22 04:04:52;;;;;;;0.50;0.50;;;3.70;96.10;;;;;;4982502;28;20054;-62
2022/03/22 04:07:21;;;;;;;0.55;0.55;;;3.60;96.10;;;;;;4968599;28;20053;-62
2022/03/22 04:09:47;;;;;;;0.10;0.10;;;3.60;96.70;;;;;;4990332;28;20108;-63
2022/03/22 04:12:13;;;;;;;0.20;0.20;;;3.60;96.80;;;;;;4990618;28;20406;-62
2022/03/22 04:14:39;;;;;;;2.50;1.20;;;3.50;97.20;;;;;;4990696;28;20030;-62
2022/03/22 04:17:08;;;;;;;1.25;1.15;;;3.50;97.50;;;;;;4991026;28;20038;-62
2022/03/22 04:19:35;;;;;;;3.63;1.95;;;3.40;98.00;;;;;;4971375;28;20080;-62
2022/03/22 04:22:02;;;;;;;0.10;0.10;;;3.40;99.00;;;;;;4989583;28;20031;-63
2022/03/22 04:24:29;;;;;;;0.22;0.22;;;3.40;98.90;;;;;;4973211;28;20026;-62
2022/03/22 04:32:41;;;;;;;0.30;0.30;;;3.60;97.90;;;;;;4991133;28;20050;-62
2022/03/22 04:32:43;;;;;;;0.13;0.13;;;3.80;97.10;;;;;;4976019;28;20026;-62
2022/03/22 04:35:19;;;;;;;1.52;1.13;;;3.80;97.30;;;;;;4976060;28;20038;-62
2022/03/22 04:37:47;;;;;;;0.47;0.47;;;3.70;97.70;;;;;;4990768;28;20026;-62
2022/03/22 04:40:14;;;;;;;0.10;0.10;;;3.70;97.70;;;;;;4973250;28;20030;-62
2022/03/22 04:42:42;;;;;;;0.57;0.57;;;3.70;97.80;;;;;;4973485;28;20601;-62
2022/03/22 04:45:09;;;;;;;0.57;0.57;;;3.60;98.20;;;;;;4957151;28;20045;-63
2022/03/22 04:47:35;;;;;;;1.05;0.85;;;3.60;98.40;;;;;;4973470;28;20612;-62
2022/03/22 04:50:07;;;;;;;0.45;0.40;;;3.50;98.40;;;;;;4972734;28;20062;-62
2022/03/22 04:58:03;;;;;;;0.10;0.10;;;3.20;99.90;;;;;;4983696;28;20041;-62
2022/03/22 05:00:29;;;;;;;0.10;0.10;;;3.10;99.90;;;;;;4970834;28;20034;-62
2022/03/22 05:02:56;;;;;;;0.75;0.50;;;3.20;99.90;;;;;;4972216;28;20154;-62
2022/03/22 05:06:25;;;;;;;0.77;0.77;;;3.20;99.90;;;;;;4974500;28;20023;-62
2022/03/22 05:08:07;;;;;;;2.03;1.88;;;3.20;99.90;;;;;;4974555;28;20034;-62
2022/03/22 05:10:34;;;;;;;0.10;0.10;;;3.20;99.90;;;;;;4973925;28;20027;-62
2022/03/22 05:13:01;;;;;;;0.25;0.25;;;3.20;99.90;;;;;;4973029;28;20034;-62
2022/03/22 05:15:27;;;;;;;0.10;0.10;;;3.10;99.90;;;;;;4974082;28;20027;-62
2022/03/22 05:17:52;;;;;;;1.08;1.08;;;3.20;99.90;;;;;;4945020;28;20125;-62
2022/03/22 05:20:18;;;;;;;0.57;0.57;;;3.20;99.90;;;;;;4975869;28;20562;-62
2022/03/22 05:22:44;;;;;;;0.20;0.20;;;3.40;99.90;;;;;;4992227;28;20034;-63
2022/03/22 05:25:14;;;;;;;1.33;1.30;;;3.40;99.90;;;;;;4993758;28;20031;-63
2022/03/22 05:27:39;;;;;;;0.10;0.10;;;3.40;99.90;;;;;;4984179;28;20437;-61
2022/03/22 05:30:07;;;;;;;0.17;0.17;;;3.50;99.90;;;;;;4992416;28;20026;-61
2022/03/22 05:32:33;;;;;;;0.20;0.20;;;3.50;99.90;;;;;;4993364;28;20672;-61
2022/03/22 05:34:58;;;;;;;0.20;0.20;;;3.50;99.90;;;;;;4991934;28;20070;-61
2022/03/22 05:37:25;;;;;;;0.80;0.80;;;3.40;99.90;;;;;;4993160;28;20026;-61
2022/03/22 05:39:51;;;;;;;0.57;0.57;;;3.30;99.90;;;;;;4991373;28;20038;-61
2022/03/22 05:42:17;;;;;;;0.52;0.52;;;3.30;99.90;;;;;;5004678;28;20558;-62
2022/03/22 05:44:43;;;;;;;0.98;0.82;;;3.10;99.90;;;;;;4984667;28;20039;-61
2022/03/22 05:47:10;;;;;;;0.80;0.65;;;3.10;99.90;;;;;;4992419;28;20061;-60
2022/03/22 05:49:36;;;;;;;0.95;0.95;;;2.90;99.90;;;;;;4988048;28;20038;-61
2022/03/22 05:52:04;;;;;;;0.40;0.40;;;2.90;99.90;;;;;;4991670;28;20101;-61
2022/03/22 05:54:29;;;;;;;0.15;0.15;;;3.00;99.90;;;;;;4985776;28;20030;-62
2022/03/22 05:56:55;;;;;;;0.60;0.60;;;3.00;99.90;;;;;;4975055;28;20032;-62
2022/03/22 05:59:21;;;;;;;0.28;0.28;;;3.30;99.90;;;;;;4990603;28;20036;-62
2022/03/22 06:01:47;;;;;;;1.05;1.05;;;3.30;99.90;;;;;;4966232;28;20058;-62
2022/03/22 06:04:13;;;;;;;0.47;0.47;;;3.30;99.90;;;;;;4991716;28;20030;-62
2022/03/22 06:06:40;;;;;;;1.38;1.27;;;3.30;99.90;;;;;;4992644;28;20037;-62
2022/03/22 06:09:06;;;;;;;1.45;1.23;;;3.40;99.90;;;;;;4975200;28;20469;-63
2022/03/22 06:11:35;;;;;;;0.55;0.55;;;3.40;99.90;;;;;;4992774;28;20478;-63
2022/03/22 06:14:03;;;;;;;0.80;0.65;;;3.50;99.90;;;;;;4992495;28;20034;-63
2022/03/22 06:16:29;;;;;;;2.08;1.77;;;3.50;99.90;;;;;;4992202;28;20394;-63
2022/03/22 06:18:56;;;;;;;0.20;0.20;;;3.50;99.90;;;;;;4974584;28;20791;-63
2022/03/22 06:21:22;;;;;;;0.28;0.28;;;3.50;99.90;;;;;;4992184;28;20041;-63
2022/03/22 06:23:48;;;;;;;0.65;0.65;;;3.60;99.90;;;;;;4999308;28;20037;-63
2022/03/22 06:26:15;;;;;;;0.10;0.10;;;3.60;99.90;;;;;;4989243;28;20113;-63
2022/03/22 06:28:41;;;;;;;7.57;2.63;;;3.70;99.90;;;;;;5001975;28;20153;-64
2022/03/22 06:31:07;;;;;;;0.65;0.65;;;3.80;99.90;;;;;;4977869;28;20022;-64
2022/03/22 06:33:33;;;;;;;0.80;0.80;;;3.80;99.90;;;;;;5007971;28;20033;-64
2022/03/22 06:36:02;;;;;;;2.03;1.02;;;3.90;99.90;;;;;;5009178;28;20447;-63
2022/03/22 06:38:32;;;;;;;2.00;1.65;;;3.90;99.90;;;;;;4966106;28;20026;-63
2022/03/22 06:40:59;;;;;;;1.98;1.50;;;4.00;99.90;;;;;;4974583;28;20026;-63
2022/03/22 06:43:25;;;;;;;2.55;1.65;;;4.10;99.90;;;;;;4974012;28;20109;-63
2022/03/22 06:45:51;;;;;;;0.30;0.30;;;4.20;99.90;;;;;;4991712;28;20140;-64
2022/03/22 06:48:17;;;;;;;3.00;2.40;;;4.20;99.90;;;;;;4991258;28;20106;-64
2022/03/22 06:50:49;;;;;;;2.17;1.95;;;4.30;99.90;;;;;;4973377;28;20046;-64
2022/03/22 06:53:16;;;;;;;0.75;0.75;;;4.40;99.90;;;;;;4994220;28;20074;-64
2022/03/22 06:55:42;;;;;;;1.52;1.42;;;4.50;99.90;;;;;;5010081;28;20029;-64
2022/03/22 06:58:09;;;;;;;10.30;3.50;;;4.60;99.90;;;;;;4994868;28;20479;-63
2022/03/22 07:00:35;;;;;;;0.40;0.40;;;4.70;99.90;;;;;;4976697;28;20120;-64
2022/03/22 07:03:03;;;;;;;8.80;4.63;;;4.70;99.90;;;;;;4970453;28;20510;-63
2022/03/22 07:05:31;;;;;;;10.20;2.60;;;4.80;99.90;;;;;;4955212;28;20087;-64
2022/03/22 07:07:57;;;;;;;3.25;1.85;;;4.90;99.90;;;;;;4923050;28;20023;-64
2022/03/22 07:10:23;;;;;;;0.43;0.43;;;5.00;99.90;;;;;;4971736;28;20026;-64
2022/03/22 07:13:05;;;;;;;0.15;0.15;;;5.00;99.90;;;;;;4971991;28;20035;-64
2022/03/22 07:15:37;;;;;;;0.50;0.50;;;5.10;99.90;;;;;;4955058;28;20590;-63
2022/03/22 07:18:11;;;;;;;1.55;1.45;;;5.20;99.90;;;;;;4972155;28;20043;-64
2022/03/22 07:20:37;;;;;;;1.35;1.30;;;5.30;99.50;;;;;;4954950;28;20022;-64
2022/03/22 07:23:03;;;;;;;2.35;1.92;;;5.40;99.50;;;;;;4959444;28;20033;-63
2022/03/22 07:25:30;;;;;;;0.38;0.38;;;5.50;99.00;;;;;;4990910;28;20038;-64
2022/03/22 07:27:56;;;;;;;1.33;1.27;;;5.60;98.50;;;;;;4957446;28;20045;-63
2022/03/22 07:30:22;;;;;;;1.02;0.93;;;5.70;97.80;;;;;;4971655;28;20065;-64
2022/03/22 07:32:49;;;;;;;3.35;1.58;;;5.80;97.10;;;;;;4986597;28;20078;-64
2022/03/22 07:35:19;;;;;;;1.00;0.93;;;5.90;96.90;;;;;;5001791;28;20030;-63
2022/03/22 07:37:45;;;;;;;2.05;0.98;;;6.00;96.40;;;;;;4989944;28;20069;-63
2022/03/22 07:40:12;;;;;;;2.20;2.08;;;6.20;95.90;;;;;;4990630;28;20454;-64
2022/03/22 07:42:38;;;;;;;1.67;1.30;;;6.30;94.80;;;;;;4990864;28;20065;-63
2022/03/22 07:45:10;;;;;;;0.45;0.45;;;6.40;94.60;;;;;;4973733;28;20034;-64
2022/03/22 07:47:38;;;;;;;0.45;0.45;;;6.50;94.30;;;;;;4990138;28;20050;-63
2022/03/22 07:53:05;;;;;;;1.20;1.10;;;6.80;93.10;;;;;;4963389;28;20027;-62
2022/03/22 07:55:40;;;;;;;0.50;0.50;;;7.00;93.00;;;;;;4971470;28;20136;-62
2022/03/22 07:58:07;;;;;;;1.35;1.27;;;7.20;93.00;;;;;;4971387;28;20045;-63
2022/03/22 08:00:38;;;;;;;0.43;0.43;;;7.30;93.00;;;;;;4971112;28;20093;-63
2022/03/22 08:03:08;;;;;;;0.90;0.90;;;7.40;93.10;;;;;;4969970;28;20426;-63
2022/03/22 08:05:35;;;;;;;1.35;0.93;;;7.50;92.50;;;;;;4971130;28;20035;-63
2022/03/22 08:08:03;;;;;;;0.45;0.45;;;7.50;92.40;;;;;;4971457;28;20074;-63
2022/03/22 08:10:32;;;;;;;0.65;0.63;;;7.60;92.30;;;;;;4970982;28;20035;-62
2022/03/22 08:13:02;;;;;;;0.85;0.85;;;7.70;92.30;;;;;;4971286;28;20033;-62
2022/03/22 08:15:28;;;;;;;2.43;2.23;;;7.80;91.90;;;;;;4954007;28;20027;-63
2022/03/22 08:17:57;;;;;;;1.80;1.50;;;7.90;91.40;;;;;;4971426;28;20038;-62
2022/03/22 08:20:27;;;;;;;0.90;0.90;;;7.90;91.00;;;;;;4970499;28;20049;-63
2022/03/22 08:22:59;;;;;;;1.95;1.85;;;8.00;91.00;;;;;;4971540;28;20037;-64
2022/03/22 08:25:30;;;;;;;;;;;8.10;91.40;;;;;;4970328;28;20126;-63
2022/03/22 08:27:59;;;;;;;2.63;2.42;;;8.20;90.60;;;;;;4953809;28;19914;-63
2022/03/22 08:30:26;;;;;;;4.00;2.42;;;8.30;90.90;;;;;;4970982;28;20174;-63
2022/03/22 08:32:55;;;;;;;0.38;0.38;;;8.40;90.70;;;;;;4971159;28;20031;-63
2022/03/22 08:35:27;;;;;;;;;;;8.60;90.60;;;;;;4954669;28;20035;-64
2022/03/22 08:37:54;;;;;;;1.08;1.00;;;8.70;90.70;;;;;;4957348;28;19910;-64
2022/03/22 08:40:21;;;;;;;1.67;1.58;;;8.80;90.60;;;;;;4957413;28;20027;-64
2022/03/22 08:42:49;;;;;;;1.73;1.63;;;8.90;90.00;;;;;;4957224;28;20452;-63
2022/03/22 08:45:19;;;;;;;0.43;0.43;;;8.90;89.90;;;;;;4973358;28;20181;-64
2022/03/22 08:47:47;;;;;;;0.52;0.52;;;9.00;90.00;;;;;;4973446;28;20039;-64
2022/03/22 08:50:17;;;;;;;2.47;1.35;;;9.10;89.90;;;;;;4956785;28;20099;-64
2022/03/22 08:52:44;;;;;;;3.42;1.90;;;9.20;87.90;;;;;;4973247;28;20145;-63
2022/03/22 08:55:15;;;;;;;0.40;0.40;;;9.30;88.20;;;;;;4974479;28;20062;-64
2022/03/22 08:57:42;;;;;;;0.73;0.73;;;9.40;88.00;;;;;;4973329;28;20034;-64
2022/03/22 09:00:13;;;;;;;1.10;1.08;;;9.50;87.20;;;;;;4974333;28;20034;-62
2022/03/22 09:02:42;;;;;;;0.63;0.63;;;9.70;87.30;;;;;;4972909;28;20027;-63
2022/03/22 09:07:58;;;;;;;0.98;0.98;;;9.90;86.20;;;;;;4972957;28;20110;-63
2022/03/22 09:10:25;;;;;;;4.68;2.33;;;10.00;84.60;;;;;;4972381;28;20482;-64
2022/03/22 09:12:52;;;;;;;1.23;1.15;;;10.10;86.30;;;;;;4973162;28;20031;-64
2022/03/22 09:15:19;;;;;;;2.63;2.42;;;10.10;83.60;;;;;;4974350;28;20069;-64
2022/03/22 09:17:47;;;;;;;1.25;1.02;;;10.30;84.70;;;;;;4974202;28;20042;-64
2022/03/22 09:20:13;;;;;;;0.30;0.30;;;10.40;83.00;;;;;;4972707;28;20121;-64
2022/03/22 09:22:44;;;;;;;0.68;0.68;;;10.50;83.40;;;;;;4974060;28;20043;-64
2022/03/22 09:25:13;;;;;;;1.60;1.03;;;10.70;81.50;;;;;;4973303;28;20470;-64
2022/03/22 09:27:41;;;;;;;2.75;1.17;;;10.80;82.20;;;;;;4974046;28;20426;-64
2022/03/22 09:30:08;;;;;;;4.43;2.75;;;10.90;81.80;;;;;;4956442;28;20135;-64
2022/03/22 09:32:38;;;;;;;6.40;3.35;;;10.90;81.00;;;;;;4973789;28;20022;-63
2022/03/22 09:35:10;;;;;;;1.10;1.10;;;11.10;80.90;;;;;;4973728;28;20077;-63
2022/03/22 09:37:42;;;;;;;2.20;1.42;;;11.20;80.80;;;;;;4973769;28;20042;-64
2022/03/22 09:40:09;;;;;;;1.52;1.42;;;11.30;80.20;;;;;;4956323;28;20169;-63
2022/03/22 09:42:38;;;;;;;4.82;3.38;;;11.40;80.10;;;;;;4972326;28;20035;-64
2022/03/22 09:45:09;;;;;;;3.08;2.45;;;11.50;79.70;;;;;;4973723;28;20033;-63
2022/03/22 09:47:36;;;;;;;1.45;1.17;;;11.60;79.20;;;;;;4972074;28;20038;-64
2022/03/22 09:50:10;;;;;;;1.75;1.27;;;11.80;79.70;;;;;;4971115;28;20043;-64
2022/03/22 09:52:37;;;;;;;1.67;1.58;;;12.00;79.90;;;;;;4973552;28;20038;-65
2022/03/22 09:55:06;;;;;;;6.25;3.33;;;11.90;79.80;;;;;;4971913;28;20390;-63
2022/03/22 09:57:32;;;;;;;1.58;1.48;;;12.10;79.30;;;;;;4955922;28;20411;-63
2022/03/22 09:59:58;;;;;;;1.38;1.25;;;12.20;78.80;;;;;;4972999;28;20483;-63
2022/03/22 10:02:32;;;;;;;1.92;1.27;;;12.40;79.20;;;;;;4971784;28;20045;-63
2022/03/22 10:04:58;;;;;;;2.88;2.33;;;12.30;77.70;;;;;;4971900;28;20033;-63
2022/03/22 10:07:24;;;;;;;1.23;1.10;;;12.40;76.00;;;;;;4972028;28;20023;-63
2022/03/22 10:09:58;;;;;;;0.63;0.63;;;12.50;75.00;;;;;;4972653;28;20554;-64
2022/03/22 10:12:30;;;;;;;2.25;2.05;;;12.60;75.70;;;;;;4973216;28;20034;-63
2022/03/22 10:15:15;;;;;;;2.05;1.88;;;12.80;76.90;;;;;;4971607;28;20489;-63
2022/03/22 10:17:46;;;;;;;1.23;1.10;;;13.00;76.40;;;;;;4973416;28;20049;-63
2022/03/22 10:20:24;;;;;;;1.95;1.67;;;13.10;73.50;;;;;;4972373;28;20030;-63
2022/03/22 10:22:58;;;;;;;1.70;1.52;;;13.00;73.40;;;;;;4972852;28;20117;-63
2022/03/22 10:25:25;;;;;;;2.58;2.30;;;13.00;73.70;;;;;;4971061;28;20038;-63
2022/03/22 10:27:55;;;;;;;2.08;1.33;;;13.20;74.10;;;;;;4971340;28;20428;-63
2022/03/22 10:30:22;;;;;;;2.25;1.85;;;13.20;72.30;;;;;;4955336;28;20037;-63
2022/03/22 10:32:53;;;;;;;1.60;1.23;;;13.60;75.20;;;;;;4955620;28;20754;-63
2022/03/22 10:35:30;;;;;;;1.92;1.80;;;13.80;69.00;;;;;;4972855;28;20041;-63
2022/03/22 10:38:07;;;;;;;1.63;1.52;;;13.70;69.40;;;;;;4955645;28;20042;-63
2022/03/22 10:40:44;;;;;;;3.35;3.00;;;13.90;69.20;;;;;;4972370;28;20070;-63
2022/03/22 10:43:19;;;;;;;1.38;1.27;;;14.00;69.60;;;;;;4972956;28;20537;-63
2022/03/22 10:45:46;;;;;;;4.78;2.40;;;14.20;69.30;;;;;;4972477;28;20030;-64
2022/03/22 10:48:40;;;;;;;4.60;2.28;;;14.20;68.70;;;;;;4972181;28;20022;-64
2022/03/22 10:51:06;;;;;;;2.00;1.60;;;14.20;70.70;;;;;;4969761;28;20110;-63
2022/03/22 10:53:35;;;;;;;0.75;0.57;;;14.20;68.10;;;;;;4971108;28;20085;-64
2022/03/22 10:56:04;;;;;;;1.67;1.58;;;14.60;67.80;;;;;;4955390;28;20113;-63
2022/03/22 10:58:31;;;;;;;0.68;0.68;;;14.40;68.70;;;;;;4970736;28;20096;-64
2022/03/22 11:01:03;;;;;;;1.17;1.08;;;15.10;68.30;;;;;;4967871;28;20031;-63
2022/03/22 11:03:34;;;;;;;1.42;1.33;;;15.00;67.60;;;;;;4956746;28;20038;-63
2022/03/22 11:06:04;;;;;;;0.55;0.55;;;15.40;69.30;;;;;;4936293;29;20506;-63
2022/03/22 11:08:30;;;;;;;3.67;1.92;;;15.50;66.30;;;;;;4952731;29;20093;-63
2022/03/22 11:10:58;;;;;;;1.30;1.20;;;15.90;66.90;;;;;;4952767;29;20031;-63
2022/03/22 11:13:24;;;;;;;0.35;0.35;;;15.20;67.10;;;;;;4935259;29;20066;-63
2022/03/22 11:15:52;;;;;;;1.60;1.50;;;15.60;66.50;;;;;;4953150;29;20023;-63
2022/03/22 11:18:21;;;;;;;1.77;1.67;;;15.60;65.30;;;;;;4947617;29;20102;-63
2022/03/22 11:21:03;;;;;;;4.07;2.28;;;15.70;66.30;;;;;;4935502;29;20475;-63
2022/03/22 11:23:33;;;;;;;1.17;1.13;;;16.10;66.60;;;;;;4958816;28;20039;-63
2022/03/22 11:26:27;;;;;;;1.77;1.63;;;16.00;63.30;;;;;;4971846;28;20117;-64
2022/03/22 11:28:53;;;;;;;7.68;2.80;;;16.10;63.00;;;;;;4970139;28;20093;-64
2022/03/22 11:31:28;;;;;;;0.98;0.95;;;15.90;63.60;;;;;;4954523;28;20470;-63
2022/03/22 11:34:12;;;;;;;4.32;2.15;;;15.70;62.90;;;;;;4941102;29;20516;-63
2022/03/22 11:36:45;;;;;;;3.45;2.65;;;15.80;63.10;;;;;;4952610;29;20035;-63
2022/03/22 11:42:15;;;;;;;2.55;2.10;;;16.30;63.80;;;;;;4952130;29;20037;-63
2022/03/22 11:42:19;;;;;;;1.55;1.33;;;15.80;64.60;;;;;;4953991;28;20110;-63
2022/03/22 11:45:02;;;;;;;2.05;1.85;;;16.50;63.80;;;;;;4954007;28;20030;-64
2022/03/22 11:47:43;;;;;;;2.13;0.90;;;16.50;62.00;;;;;;4971542;28;20041;-63
2022/03/22 11:50:17;;;;;;;;;;;17.10;62.60;;;;;;4971464;28;20031;-64
2022/03/22 11:52:45;;;;;;;0.52;0.52;;;17.20;61.60;;;;;;4970646;28;19914;-64
2022/03/22 11:55:22;;;;;;;5.88;2.75;;;18.10;59.30;;;;;;4971722;28;20026;-64
2022/03/22 11:58:03;;;;;;;0.85;0.85;;;18.60;58.20;;;;;;4971536;28;20027;-63
2022/03/22 12:00:51;;;;;;;;;;;17.80;61.20;;;;;;4954380;28;20492;-64
2022/03/22 12:03:21;;;;;;;4.07;2.97;;;18.60;60.30;;;;;;4970048;28;20544;-64
2022/03/22 12:05:47;;;;;;;2.10;1.90;;;17.30;61.40;;;;;;4969451;28;20048;-63
2022/03/22 12:08:17;;;;;;;12.55;2.03;;;18.00;59.70;;;;;;4971108;28;20526;-63
2022/03/22 12:10:58;;;;;;;2.78;2.58;;;18.90;58.20;;;;;;4954301;28;20067;-64
2022/03/22 12:13:25;;;;;;;1.87;1.50;;;17.70;57.70;;;;;;4958035;28;20491;-65
2022/03/22 12:16:01;;;;;;;1.13;1.02;;;18.00;58.00;;;;;;4975042;28;20297;-65
2022/03/22 12:18:29;;;;;;;1.60;1.27;;;18.90;64.50;;;;;;4957648;28;20055;-64
2022/03/22 12:20:56;;;;;;;1.70;1.60;;;20.20;55.30;;;;;;4941743;28;20027;-64
2022/03/22 12:23:23;;;;;;;1.25;0.93;;;20.30;55.40;;;;;;4958173;28;20510;-64
2022/03/22 12:25:49;;;;;;;2.50;2.00;;;20.10;56.20;;;;;;4957682;28;20438;-64
2022/03/22 12:28:16;;;;;;;1.77;1.67;;;20.10;55.50;;;;;;4953532;28;20065;-64
2022/03/22 12:30:44;;;;;;;1.38;1.27;;;20.70;55.00;;;;;;4974494;28;20027;-63
2022/03/22 12:33:21;;;;;;;2.40;1.92;;;20.40;53.10;;;;;;4957655;28;20035;-63
2022/03/22 12:35:49;;;;;;;1.77;1.42;;;21.30;51.60;;;;;;4974579;28;20027;-63
2022/03/22 12:38:18;;;;;;;1.35;1.25;;;21.20;52.30;;;;;;4974474;28;20118;-63
2022/03/22 12:40:46;;;;;;;1.73;1.30;;;22.10;52.30;;;;;;4974374;28;20038;-63
2022/03/22 12:43:13;;;;;;;2.80;1.88;;;20.50;52.90;;;;;;4975210;28;20023;-63
2022/03/22 12:45:44;;;;;;;3.08;2.28;;;19.70;52.60;;;;;;4974530;28;20062;-63
2022/03/22 12:48:10;;;;;;;2.88;1.90;;;19.50;54.90;;;;;;4974695;28;20399;-63
2022/03/22 12:50:36;;;;;;;2.38;1.17;;;19.70;54.20;;;;;;4972735;28;20494;-63
2022/03/22 12:53:02;;;;;;;1.73;1.63;;;21.40;52.40;;;;;;4974586;28;20077;-63
2022/03/22 12:55:28;;;;;;;2.15;1.83;;;21.60;51.50;;;;;;4974463;28;20066;-63
2022/03/22 12:57:56;;;;;;;3.70;1.63;;;22.00;50.70;;;;;;4974614;28;20038;-64
2022/03/22 13:00:42;;;;;;;3.10;2.35;;;22.50;50.20;;;;;;4974215;28;20090;-63
2022/03/22 13:03:12;;;;;;;2.83;2.17;;;23.20;48.90;;;;;;4972705;28;20737;-63
2022/03/22 13:05:47;;;;;;;2.22;2.03;;;21.60;48.80;;;;;;4974152;28;20483;-64
2022/03/22 13:08:26;;;;;;;3.65;2.17;;;19.50;52.50;;;;;;4974475;28;20390;-64
2022/03/22 13:16:30;;;;;;;1.13;1.08;;;20.60;52.10;;;;;;4974476;28;20023;-64
2022/03/22 13:19:00;;;;;;;2.50;1.92;;;20.30;53.00;;;;;;4956255;28;20031;-64
2022/03/22 13:21:32;;;;;;;0.50;0.50;;;19.50;51.90;;;;;;4957183;28;20386;-64
2022/03/22 13:24:07;;;;;;;0.88;0.85;;;21.30;51.50;;;;;;4972727;28;20487;-64
2022/03/22 13:26:37;;;;;;;4.65;3.20;;;20.40;51.60;;;;;;4968483;28;20420;-64
2022/03/22 13:29:14;;;;;;;2.13;1.80;;;20.90;51.60;;;;;;4954844;29;20031;-64
2022/03/22 13:31:59;;;;;;;2.30;1.63;;;21.70;50.80;;;;;;4937566;29;20027;-64
2022/03/22 13:34:28;;;;;;;6.65;2.33;;;22.40;49.50;;;;;;4951505;28;20085;-64